Flight Track Log - Related Links

Times and Time Zones

All times are in EDT time to prevent confusion due to time zone crossing. See the UPS492 flight status page for this flight to view local times or setup timezone preferences in your user account.

Time Position Orientation Groundspeed Altitude Reporting Facility
EDT Latitude Longitude Course Direction KTS MPH feet Rate Location/Type
Sat 05:22:16 AM 38.1710 -85.7420 345° North 20 23  Level FlightAware ADS-B
Sat 05:22:42 AM 38.1730 -85.7430 339° North 22 25 333 Level FlightAware ADS-B
Sat 05:23:10 AM 38.1760 -85.7440 345° North 24 28 369 Level FlightAware ADS-B
Sat 05:23:42 AM 38.1800 -85.7450 349° North 25 29 417 Level FlightAware ADS-B
Sat 05:24:08 AM 38.1830 -85.7460 345° North 16 18 489 Level FlightAware ADS-B
Sat 05:24:52 AM 38.1850 -85.7470 339° North 20 23 570 Level FlightAware ADS-B
Sat 05:25:20 AM 38.1840 -85.7480 218° Southwest 23 26 789 Level FlightAware ADS-B
Sat 05:26:16 AM 38.1810 -85.7470 165° South 88 101 1,047 Level FlightAware ADS-B
Sat 05:26:46 AM 38.1590 -85.7390 164° South 179 206 1,500 3,143 Climbing FlightAware ADS-B
Sat 05:26:58 AM 38.1480 -85.7380 176° South 186 214 2,200 2,700 Climbing FlightAware ADS-B
Sat 05:27:26 AM 38.1230 -85.7390 182° South 218 251 3,300 1,429 Climbing FlightAware ADS-B
Sat 05:27:40 AM 38.1136 -85.7389 307° West 208 239 3,200 1,714 Descending Indianapolis Center
Sat 05:27:54 AM 38.0910 -85.7400 181° South 266 306 4,100 3,571 Climbing FlightAware ADS-B
Sat 05:28:22 AM 38.0550 -85.7420 183° South 280 322 5,700 3,682 Climbing FlightAware ADS-B
Sat 05:28:38 AM 38.0360 -85.7490 196° South 273 314 6,800 2,333 Climbing FlightAware ADS-B
Sat 05:28:40 AM 38.0383 -85.7464 184° South 254 292 6,400 3,500 Descending Indianapolis Center
Sat 05:28:50 AM 38.0240 -85.7610 218° Southwest 269 310 7,500 4,846 Climbing FlightAware ADS-B
Sat 05:29:06 AM 38.0140 -85.7810 238° Southwest 265 305 8,500 3,923 Climbing FlightAware ADS-B
Sat 05:29:16 AM 38.0120 -85.7960 260° West 264 304 9,200 2,057 Climbing FlightAware ADS-B
Sat 05:29:41 AM 38.0175 -85.8275 252° West 272 313 9,700 2,200 Climbing Indianapolis Center
Sat 05:29:46 AM 38.0280 -85.8380 296° West 281 323 10,300 1,500 Climbing FlightAware ADS-B
Sat 05:30:41 AM 38.0872 -85.8953 323° Northwest 318 366 11,200 1,914 Climbing Indianapolis Center
Sat 05:31:42 AM 38.1528 -85.9942 310° West 361 415 14,000 2,777 Climbing Indianapolis Center
Sat 05:32:00 AM 38.1659 -86.0676 307° West  Level Estimated
Sat 05:32:42 AM 38.2164 -86.1019 307° West 377 434 16,800  Level Indianapolis Center
Sat 05:33:43 AM 38.2842 -86.2117 308° West 391 450 19,600 2,754 Climbing Indianapolis Center
Sat 05:34:44 AM 38.3522 -86.3253 307° West 400 460 22,400 2,331 Climbing Indianapolis Center
Sat 05:35:44 AM 38.4208 -86.4394 308° West 405 466 24,300 1,934 Climbing Indianapolis Center
Sat 05:36:45 AM 38.4933 -86.5586 308° West 421 484 26,300 1,983 Climbing Indianapolis Center
Sat 05:37:45 AM 38.5644 -86.6789 307° West 426 490 28,300 556 Climbing Indianapolis Center
Sat 05:43:24 AM 38.9690 -87.3620 307° West 415 478 30,000 269 Climbing FlightAware ADS-B
Sat 05:44:04 AM 39.0160 -87.4410 307° West 416 479 30,000  Level FlightAware ADS-B
Sat 05:44:47 AM 39.0630 -87.5230 306° West 418 481 30,000  Level FlightAware ADS-B
Sat 05:45:27 AM 39.1110 -87.6050 307° West 428 493 30,000  Level FlightAware ADS-B
Sat 05:46:05 AM 39.1560 -87.6830 307° West 431 496 30,000  Level FlightAware ADS-B
Sat 05:46:55 AM 39.2160 -87.7880 306° West 425 489 30,000  Level FlightAware ADS-B
Sat 05:47:35 AM 39.2630 -87.8670 308° West 423 487 30,000  Level FlightAware ADS-B
Sat 05:48:19 AM 39.3150 -87.9580 306° West 423 487 30,000  Level FlightAware ADS-B
Sat 05:48:59 AM 39.3610 -88.0380 307° West 425 489 30,000  Level FlightAware ADS-B
Sat 05:49:30 AM 39.3970 -88.1010 306° West 427 491 30,000  Level FlightAware ADS-B
Sat 05:50:23 AM 39.4600 -88.2120 306° West 428 493 30,000  Level FlightAware ADS-B
Sat 05:51:03 AM 39.5070 -88.2930 307° West 428 493 30,000  Level FlightAware ADS-B
Sat 05:52:09 AM 39.5840 -88.4280 307° West 425 489 30,000  Level FlightAware ADS-B
Sat 05:52:53 AM 39.6360 -88.5210 306° West 425 489 30,000  Level FlightAware ADS-B
Sat 05:53:37 AM 39.6860 -88.6080 307° West 426 490 30,000  Level FlightAware ADS-B
Sat 05:54:53 AM 39.7760 -88.7700 306° West 431 496 30,000  Level FlightAware ADS-B
Sat 05:55:57 AM 39.8500 -88.9030 306° West 431 496 30,000  Level FlightAware ADS-B
Sat 06:00:26 AM 40.1590 -89.4620 306° West 426 490 30,000  Level FlightAware ADS-B
Sat 06:01:07 AM 40.2050 -89.5460 306° West 420 483 30,000  Level FlightAware ADS-B
Sat 06:01:53 AM 40.2580 -89.6430 306° West 418 481 30,000  Level FlightAware ADS-B
Sat 06:02:32 AM 40.3010 -89.7230 305° West 417 480 30,000  Level FlightAware ADS-B
Sat 06:03:13 AM 40.3460 -89.8050 306° West 414 476 30,000  Level FlightAware ADS-B
Sat 06:03:55 AM 40.3940 -89.8930 306° West 415 478 30,000  Level FlightAware ADS-B
Sat 06:04:41 AM 40.4450 -89.9880 305° West 417 480 30,000  Level FlightAware ADS-B
Sat 06:05:15 AM 40.4840 -90.0580 306° West 417 480 30,000  Level FlightAware ADS-B
Sat 06:05:57 AM 40.5300 -90.1450 305° West 415 478 30,000  Level FlightAware ADS-B
Sat 06:06:37 AM 40.5740 -90.2270 305° West 412 474 30,000  Level FlightAware ADS-B
Sat 06:07:25 AM 40.6270 -90.3260 305° West 413 475 30,000  Level FlightAware ADS-B
Sat 06:08:09 AM 40.6750 -90.4150 305° West 414 476 30,000  Level FlightAware ADS-B
Sat 06:08:53 AM 40.7230 -90.5080 304° West 416 479 30,000  Level FlightAware ADS-B
Sat 06:09:33 AM 40.7670 -90.5900 305° West 418 481 30,000  Level FlightAware ADS-B
Sat 06:10:25 AM 40.8250 -90.7000 305° West 416 479 30,000  Level FlightAware ADS-B
Sat 06:11:35 AM 40.9010 -90.8440 305° West 413 475 30,000  Level FlightAware ADS-B
Sat 06:12:21 AM 40.9510 -90.9390 305° West 411 473 30,000  Level FlightAware ADS-B
Sat 06:13:01 AM 40.9940 -91.0220 304° West 410 472 30,000  Level FlightAware ADS-B
Sat 06:13:45 AM 41.0420 -91.1130 305° West 409 471 30,000  Level FlightAware ADS-B
Sat 06:14:25 AM 41.0850 -91.1980 304° West 410 472 30,000  Level FlightAware ADS-B
Sat 06:15:15 AM 41.1258 -91.2789 304° West 411 473 30,000  Level Chicago Center
Sat 06:16:15 AM 41.1897 -91.4017 305° West 406 467 30,000  Level Chicago Center
Sat 06:17:16 AM 41.2603 -91.5397 304° West 402 463 30,000  Level Chicago Center
Sat 06:18:16 AM 41.3231 -91.6600 305° West 400 460 30,000  Level Chicago Center
Sat 06:19:17 AM 41.3844 -91.7825 304° West 401 461 30,000  Level Chicago Center
Sat 06:24:40 AM 41.7050 -92.4160 304° West 389 448 30,000  Level FlightAware ADS-B
Sat 06:25:47 AM 41.7860 -92.5800 304° West 386 444 30,000  Level FlightAware ADS-B
Sat 06:26:27 AM 41.8240 -92.6600 303° West 384 442 30,000  Level FlightAware ADS-B
Sat 06:27:09 AM 41.8660 -92.7430 304° West 383 441 30,000  Level FlightAware ADS-B
Sat 06:27:51 AM 41.9060 -92.8260 303° West 382 440 30,000  Level FlightAware ADS-B
Sat 06:28:35 AM 41.9480 -92.9090 304° West 381 438 30,000  Level FlightAware ADS-B
Sat 06:29:30 AM 42.0020 -93.0200 303° West 379 436 30,000  Level FlightAware ADS-B
Sat 06:30:22 AM 42.0510 -93.1200 303° West 378 435 30,000  Level FlightAware ADS-B
Sat 06:31:15 AM 42.1040 -93.2290 303° West 379 436 30,000  Level FlightAware ADS-B
Sat 06:32:14 AM 42.1600 -93.3440 303° West 381 438 30,000  Level FlightAware ADS-B
Sat 06:33:08 AM 42.2100 -93.4500 303° West 379 436 30,000  Level FlightAware ADS-B
Sat 06:37:07 AM 42.4370 -93.9250 303° West 378 435 30,000  Level FlightAware ADS-B
Sat 06:37:53 AM 42.4810 -94.0170 303° West 378 435 30,000  Level FlightAware ADS-B
Sat 06:38:19 AM 42.5066 -94.0711 303° West 378 435 30,000  Level FlightAware ADS-B
Sat 06:38:50 AM 42.5355 -94.1330 302° West 377 434 30,000  Level FlightAware ADS-B
Sat 06:39:41 AM 42.5831 -94.2347 302° West 377 434 30,000  Level FlightAware ADS-B
Sat 06:40:12 AM 42.6121 -94.2969 302° West 379 436 30,000  Level FlightAware ADS-B
Sat 06:40:21 AM 42.6199 -94.3153 300° West 380 437 30,000  Level FlightAware ADS-B
Sat 06:41:54 AM 42.7001 -94.5091 299° West 380 437 30,000  Level FlightAware ADS-B
Sat 06:42:24 AM 42.7259 -94.5718 299° West 380 437 30,000  Level FlightAware ADS-B
Sat 06:42:56 AM 42.7529 -94.6385 299° West 380 437 30,000  Level FlightAware ADS-B
Sat 06:43:27 AM 42.7790 -94.7032 299° West 380 437 30,000  Level FlightAware ADS-B
Sat 06:43:58 AM 42.8053 -94.7678 299° West 379 436 30,000  Level FlightAware ADS-B
Sat 06:44:29 AM 42.8317 -94.8325 299° West 379 436 30,000  Level FlightAware ADS-B
Sat 06:44:59 AM 42.8577 -94.8952 300° West 379 436 30,000 -189 Level FlightAware ADS-B
Sat 06:46:04 AM 42.9125 -95.0317 299° West 379 436 29,700 -778 Descending FlightAware ADS-B
Sat 06:46:47 AM 42.9488 -95.1222 299° West 380 437 28,600 -1,459 Descending FlightAware ADS-B
Sat 06:47:18 AM 42.9747 -95.1873 299° West 380 437 27,900 -1,500 Descending FlightAware ADS-B
Sat 06:47:51 AM 43.0027 -95.2570 299° West 382 440 27,000 -1,619 Descending FlightAware ADS-B
Sat 06:48:21 AM 43.0294 -95.3215 300° West 394 453 26,200 -1,475 Descending FlightAware ADS-B
Sat 06:48:52 AM 43.0562 -95.3897 298° West 401 461 25,500 -1,475 Descending FlightAware ADS-B
Sat 06:49:22 AM 43.0835 -95.4565 299° West 401 461 24,700 -1,579 Descending FlightAware ADS-B
Sat 06:50:08 AM 43.1234 -95.5586 298° West 396 456 23,500 -1,500 Descending FlightAware ADS-B
Sat 06:50:38 AM 43.1499 -95.6253 299° West 399 459 22,800 -1,500 Descending FlightAware ADS-B
Sat 06:51:08 AM 43.1760 -95.6919 298° West 395 455 22,000 -2,164 Descending FlightAware ADS-B
Sat 06:51:39 AM 43.2016 -95.7588 298° West 381 438 20,600 -2,754 Descending FlightAware ADS-B
Sat 06:52:09 AM 43.2267 -95.8213 299° West 369 425 19,200 -2,691 Descending FlightAware ADS-B
Sat 06:54:24 AM 43.3217 -96.0924 296° West 345 397 13,200 -2,802 Descending FlightAware ADS-B
Sat 06:54:56 AM 43.3374 -96.1578 288° West 331 381 11,400 -2,182 Descending FlightAware ADS-B
Sat 06:55:30 AM 43.3500 -96.2103 288° West 343 395 10,800 -1,404 Descending Minneapolis Center
Sat 06:56:30 AM 43.3747 -96.3125 288° West 312 359 9,200 -1,587 Descending Minneapolis Center
Sat 06:57:31 AM 43.3964 -96.4042 288° West 276 318 7,600 -1,537 Descending Minneapolis Center
Sat 06:58:31 AM 43.4169 -96.4967 287° West 264 304 6,100 -1,488 Descending Minneapolis Center
Sat 06:59:32 AM 43.4383 -96.5878 288° West 257 296 4,600 -1,041 Descending Minneapolis Center
Sat 07:00:32 AM 43.4578 -96.6719 288° West 248 285 4,000 -595 Descending Minneapolis Center
Sat 07:01:33 AM 43.4706 -96.7292 287° West 201 231 3,400 -316 Descending Minneapolis Center
Sat 07:02:45 AM 43.4875 -96.7967 289° West 171 197 3,300 -273 Descending Minneapolis Center
Sat 07:03:45 AM 43.5133 -96.8092 341° North 135 155 2,800 -496 Descending Minneapolis Center
Sat 07:04:58 AM 43.5403 -96.7867 31° Northeast 121 139 2,200 -451 Descending Minneapolis Center
Sat 07:05:58 AM 43.5700 -96.7583 35° Northeast 118 136 1,800 -400 Descending Minneapolis Center
Sat 07:07:00 AM 43.5667 -96.7333 36° Northeast  Level FlightAware Approximate

Login

Don't have an account? Register now (free) for customized features, flight alerts, and more!